Time;durP1;ratioP1;P1;durP2;ratioP2;P2;SDS_P1;SDS_P2;PMS_P1;PMS_P2;Temp;Humidity;BMP_temperature;BMP_pressure;BME280_temperature;BME280_humidity;BME280_pressure;Samples;Min_cycle;Max_cycle;Signal;HPM_P1;HPM_P2
2019/07/13 00:01:48;;;;;;;1.75;1.65;;;;;;;21.89;52.91;100357.89;;;;-49
2019/07/13 00:04:48;;;;;;;2.24;1.76;;;;;;;21.88;52.91;100357.12;;;;-49
2019/07/13 00:07:48;;;;;;;1.75;1.65;;;;;;;21.89;52.89;100356.11;;;;-49
2019/07/13 00:10:48;;;;;;;1.91;1.69;;;;;;;21.88;52.95;100358.47;;;;-49
2019/07/13 00:13:48;;;;;;;2.02;1.65;;;;;;;21.88;52.86;100360.45;;;;-49
2019/07/13 00:16:48;;;;;;;2.31;1.69;;;;;;;21.88;52.83;100361.05;;;;-49
2019/07/13 00:19:48;;;;;;;1.92;1.67;;;;;;;21.87;52.86;100361.70;;;;-49
2019/07/13 00:22:48;;;;;;;1.93;1.62;;;;;;;21.87;52.94;100357.83;;;;-49
2019/07/13 00:25:48;;;;;;;2.04;1.75;;;;;;;21.86;52.85;100358.97;;;;-49
2019/07/13 00:28:48;;;;;;;1.73;1.63;;;;;;;21.86;52.88;100363.34;;;;-50
2019/07/13 00:31:48;;;;;;;2.17;1.83;;;;;;;21.86;52.83;100365.86;;;;-49
2019/07/13 00:34:48;;;;;;;1.93;1.67;;;;;;;21.86;52.77;100370.14;;;;-49
2019/07/13 00:37:48;;;;;;;1.74;1.64;;;;;;;21.86;52.89;100369.73;;;;-49
2019/07/13 00:40:48;;;;;;;1.80;1.70;;;;;;;21.85;52.80;100370.27;;;;-49
2019/07/13 00:43:48;;;;;;;1.99;1.79;;;;;;;21.85;52.83;100371.14;;;;-49
2019/07/13 00:46:48;;;;;;;1.80;1.70;;;;;;;21.86;52.81;100372.59;;;;-49
2019/07/13 00:49:48;;;;;;;1.77;1.67;;;;;;;21.85;52.81;100373.91;;;;-54
2019/07/13 00:52:48;;;;;;;1.70;1.60;;;;;;;21.84;52.84;100374.10;;;;-54
2019/07/13 00:55:48;;;;;;;1.71;1.61;;;;;;;21.83;52.82;100371.58;;;;-54
2019/07/13 00:58:48;;;;;;;3.73;1.70;;;;;;;21.83;52.81;100369.97;;;;-54
2019/07/13 01:01:48;;;;;;;2.01;1.70;;;;;;;21.83;52.82;100374.07;;;;-54
2019/07/13 01:04:48;;;;;;;1.73;1.63;;;;;;;21.84;52.79;100373.20;;;;-54
2019/07/13 01:07:48;;;;;;;2.62;1.60;;;;;;;21.83;52.75;100369.47;;;;-54
2019/07/13 01:10:48;;;;;;;2.36;1.82;;;;;;;21.83;52.76;100373.67;;;;-54
2019/07/13 01:13:48;;;;;;;2.18;1.79;;;;;;;21.82;52.78;100370.94;;;;-54
2019/07/13 01:16:48;;;;;;;1.97;1.69;;;;;;;21.82;52.78;100372.13;;;;-54
2019/07/13 01:19:48;;;;;;;1.75;1.63;;;;;;;21.82;52.73;100369.27;;;;-54
2019/07/13 01:22:48;;;;;;;1.72;1.62;;;;;;;21.82;52.73;100377.09;;;;-54
2019/07/13 01:25:48;;;;;;;1.70;1.60;;;;;;;21.81;52.79;100377.06;;;;-54
2019/07/13 01:28:48;;;;;;;1.82;1.70;;;;;;;21.80;52.73;100376.69;;;;-54
2019/07/13 01:31:48;;;;;;;1.71;1.61;;;;;;;21.81;52.78;100377.64;;;;-54
2019/07/13 01:34:48;;;;;;;1.69;1.59;;;;;;;21.81;52.73;100376.56;;;;-54
2019/07/13 01:37:48;;;;;;;1.78;1.68;;;;;;;21.80;52.75;100379.55;;;;-54
2019/07/13 01:40:48;;;;;;;1.78;1.68;;;;;;;21.80;52.79;100385.09;;;;-54
2019/07/13 01:43:48;;;;;;;2.01;1.72;;;;;;;21.80;52.72;100389.87;;;;-54
2019/07/13 01:46:48;;;;;;;1.81;1.67;;;;;;;21.80;52.72;100389.53;;;;-55
2019/07/13 01:49:48;;;;;;;1.77;1.67;;;;;;;21.80;52.70;100391.39;;;;-54
2019/07/13 01:52:48;;;;;;;2.27;1.70;;;;;;;21.79;52.69;100392.46;;;;-54
2019/07/13 01:55:48;;;;;;;2.47;1.60;;;;;;;21.79;52.70;100386.98;;;;-54
2019/07/13 01:58:48;;;;;;;1.79;1.69;;;;;;;21.78;52.68;100388.63;;;;-54
2019/07/13 02:01:48;;;;;;;1.86;1.71;;;;;;;21.78;52.73;100389.73;;;;-54
2019/07/13 02:04:48;;;;;;;2.01;1.70;;;;;;;21.78;52.70;100390.14;;;;-54
2019/07/13 02:07:48;;;;;;;1.81;1.71;;;;;;;21.77;52.72;100397.77;;;;-53
2019/07/13 02:10:48;;;;;;;1.96;1.60;;;;;;;21.78;52.72;100407.63;;;;-54
2019/07/13 02:13:48;;;;;;;1.71;1.61;;;;;;;21.77;52.69;100408.19;;;;-54
2019/07/13 02:16:48;;;;;;;1.73;1.63;;;;;;;21.77;52.69;100412.06;;;;-54
2019/07/13 02:19:48;;;;;;;1.77;1.67;;;;;;;21.77;52.73;100415.59;;;;-54
2019/07/13 02:22:48;;;;;;;2.47;1.60;;;;;;;21.76;52.74;100419.76;;;;-54
2019/07/13 02:25:48;;;;;;;2.06;1.60;;;;;;;21.76;52.70;100422.11;;;;-54
2019/07/13 02:28:48;;;;;;;1.72;1.62;;;;;;;21.76;52.70;100423.19;;;;-53
2019/07/13 02:31:48;;;;;;;2.01;1.67;;;;;;;21.75;52.70;100424.94;;;;-54
2019/07/13 02:34:48;;;;;;;1.73;1.63;;;;;;;21.75;52.71;100427.36;;;;-54
2019/07/13 02:37:48;;;;;;;1.73;1.57;;;;;;;21.75;52.70;100427.46;;;;-53
2019/07/13 02:40:48;;;;;;;1.75;1.65;;;;;;;21.75;52.65;100431.33;;;;-54
2019/07/13 02:43:48;;;;;;;2.25;1.61;;;;;;;21.75;52.68;100433.58;;;;-54
2019/07/13 02:46:48;;;;;;;1.80;1.70;;;;;;;21.74;52.65;100430.38;;;;-54
2019/07/13 02:49:48;;;;;;;1.70;1.60;;;;;;;21.75;52.64;100435.59;;;;-54
2019/07/13 02:52:48;;;;;;;1.69;1.59;;;;;;;21.74;52.65;100437.68;;;;-54
2019/07/13 02:55:48;;;;;;;1.69;1.59;;;;;;;21.74;52.65;100440.87;;;;-54
2019/07/13 02:58:48;;;;;;;1.61;1.51;;;;;;;21.74;52.63;100448.10;;;;-53
2019/07/13 03:01:48;;;;;;;1.82;1.60;;;;;;;21.73;52.56;100447.56;;;;-54
2019/07/13 03:04:48;;;;;;;1.73;1.63;;;;;;;21.73;52.65;100449.24;;;;-53
2019/07/13 03:07:48;;;;;;;1.80;1.70;;;;;;;21.73;52.64;100450.08;;;;-53
2019/07/13 03:10:48;;;;;;;2.01;1.70;;;;;;;21.73;52.67;100452.27;;;;-53
2019/07/13 03:13:48;;;;;;;1.75;1.65;;;;;;;21.73;52.67;100455.70;;;;-54
2019/07/13 03:16:48;;;;;;;1.87;1.70;;;;;;;21.72;52.59;100457.78;;;;-54
2019/07/13 03:19:48;;;;;;;1.70;1.60;;;;;;;21.72;52.67;100460.23;;;;-54
2019/07/13 03:22:48;;;;;;;1.81;1.71;;;;;;;21.72;52.61;100463.49;;;;-54
2019/07/13 03:25:48;;;;;;;1.75;1.62;;;;;;;21.72;52.59;100466.95;;;;-54
2019/07/13 03:28:48;;;;;;;1.53;1.43;;;;;;;21.72;52.61;100467.70;;;;-54
2019/07/13 03:31:48;;;;;;;1.69;1.59;;;;;;;21.72;52.60;100467.19;;;;-54
2019/07/13 03:34:48;;;;;;;2.25;1.70;;;;;;;21.72;52.62;100463.73;;;;-54
2019/07/13 03:37:48;;;;;;;1.60;1.50;;;;;;;21.71;52.59;100461.11;;;;-53
2019/07/13 03:40:48;;;;;;;1.77;1.67;;;;;;;21.72;52.57;100466.92;;;;-54
2019/07/13 03:43:48;;;;;;;1.64;1.54;;;;;;;21.71;52.58;100471.53;;;;-54
2019/07/13 03:46:48;;;;;;;1.72;1.62;;;;;;;21.71;52.61;100470.42;;;;-53
2019/07/13 03:49:48;;;;;;;1.73;1.63;;;;;;;21.71;52.59;100470.08;;;;-53
2019/07/13 03:52:48;;;;;;;1.77;1.67;;;;;;;21.71;52.60;100476.47;;;;-53
2019/07/13 03:55:48;;;;;;;1.79;1.65;;;;;;;21.70;52.58;100475.36;;;;-53
2019/07/13 03:58:48;;;;;;;1.86;1.75;;;;;;;21.70;52.57;100480.00;;;;-54
2019/07/13 04:01:48;;;;;;;1.71;1.61;;;;;;;21.70;52.61;100481.64;;;;-53
2019/07/13 04:04:48;;;;;;;1.94;1.47;;;;;;;21.71;52.60;100481.84;;;;-54
2019/07/13 04:07:48;;;;;;;1.76;1.66;;;;;;;21.70;52.56;100486.22;;;;-53
2019/07/13 04:10:48;;;;;;;1.86;1.76;;;;;;;21.69;52.60;100488.37;;;;-53
2019/07/13 04:13:48;;;;;;;1.69;1.59;;;;;;;21.69;52.54;100489.55;;;;-53
2019/07/13 04:16:48;;;;;;;1.69;1.59;;;;;;;21.69;52.51;100490.55;;;;-53
2019/07/13 04:19:48;;;;;;;1.69;1.59;;;;;;;21.69;52.53;100496.00;;;;-54
2019/07/13 04:22:48;;;;;;;1.69;1.59;;;;;;;21.69;52.54;100506.18;;;;-54
2019/07/13 04:25:48;;;;;;;1.73;1.63;;;;;;;21.69;52.51;100501.04;;;;-54
2019/07/13 04:28:48;;;;;;;1.67;1.57;;;;;;;21.69;52.51;100503.29;;;;-54
2019/07/13 04:31:48;;;;;;;1.64;1.54;;;;;;;21.68;52.50;100498.25;;;;-54
2019/07/13 04:34:48;;;;;;;1.80;1.70;;;;;;;21.68;52.45;100503.45;;;;-53
2019/07/13 04:37:48;;;;;;;1.75;1.65;;;;;;;21.68;52.44;100501.00;;;;-54
2019/07/13 04:40:48;;;;;;;1.62;1.52;;;;;;;21.68;52.44;100504.94;;;;-54
2019/07/13 04:43:48;;;;;;;2.43;1.57;;;;;;;21.67;52.42;100502.81;;;;-53
2019/07/13 04:46:48;;;;;;;1.60;1.50;;;;;;;21.67;52.40;100507.45;;;;-54
2019/07/13 04:49:48;;;;;;;2.27;1.52;;;;;;;21.68;52.38;100511.49;;;;-54
2019/07/13 04:52:48;;;;;;;1.66;1.56;;;;;;;21.67;52.42;100512.66;;;;-53
2019/07/13 04:55:48;;;;;;;8.16;4.44;;;;;;;21.43;56.27;100519.58;;;;-53
2019/07/13 04:58:48;;;;;;;6.28;5.13;;;;;;;21.25;57.20;100519.06;;;;-53
2019/07/13 05:01:48;;;;;;;7.53;5.07;;;;;;;21.21;57.53;100520.42;;;;-52
2019/07/13 05:04:48;;;;;;;10.76;5.24;;;;;;;21.24;57.50;100524.57;;;;-54
2019/07/13 05:07:48;;;;;;;8.97;4.28;;;;;;;21.35;56.04;100530.63;;;;-52
2019/07/13 05:10:48;;;;;;;8.03;4.24;;;;;;;21.42;55.80;100535.84;;;;-51
2019/07/13 05:13:48;;;;;;;5.17;3.70;;;;;;;21.46;55.55;100537.50;;;;-52
2019/07/13 05:16:48;;;;;;;5.94;3.87;;;;;;;21.49;55.34;100543.33;;;;-52
2019/07/13 05:19:48;;;;;;;5.21;3.59;;;;;;;21.51;55.26;100549.52;;;;-52
2019/07/13 05:22:48;;;;;;;6.03;3.78;;;;;;;21.54;55.08;100551.38;;;;-51
2019/07/13 05:25:48;;;;;;;4.66;3.43;;;;;;;21.54;54.88;100553.27;;;;-52
2019/07/13 05:28:48;;;;;;;5.63;3.33;;;;;;;21.55;54.61;100557.67;;;;-52
2019/07/13 05:31:48;;;;;;;6.15;3.22;;;;;;;21.57;54.54;100561.91;;;;-52
2019/07/13 05:34:48;;;;;;;5.74;3.46;;;;;;;21.56;54.46;100561.30;;;;-52
2019/07/13 05:37:48;;;;;;;4.42;3.25;;;;;;;21.57;54.37;100564.03;;;;-52
2019/07/13 05:40:48;;;;;;;5.03;3.20;;;;;;;21.58;54.27;100564.91;;;;-52
2019/07/13 05:43:48;;;;;;;4.72;3.19;;;;;;;21.58;54.18;100567.59;;;;-51
2019/07/13 05:46:48;;;;;;;3.86;2.93;;;;;;;21.58;54.11;100570.45;;;;-52
2019/07/13 05:49:48;;;;;;;4.82;3.21;;;;;;;21.59;54.06;100573.55;;;;-52
2019/07/13 05:52:48;;;;;;;4.68;2.96;;;;;;;21.59;54.02;100578.93;;;;-52
2019/07/13 05:55:48;;;;;;;3.66;3.01;;;;;;;21.59;53.93;100579.87;;;;-51
2019/07/13 05:58:48;;;;;;;3.78;2.91;;;;;;;21.59;53.86;100582.56;;;;-52
2019/07/13 06:01:48;;;;;;;3.53;2.85;;;;;;;21.59;53.83;100582.25;;;;-52
2019/07/13 06:04:48;;;;;;;5.34;2.92;;;;;;;21.59;53.74;100583.97;;;;-51
2019/07/13 06:07:48;;;;;;;4.05;2.86;;;;;;;21.59;53.69;100586.59;;;;-52
2019/07/13 06:10:48;;;;;;;3.35;2.81;;;;;;;21.59;53.70;100589.69;;;;-48
2019/07/13 06:13:48;;;;;;;3.31;2.76;;;;;;;21.59;53.65;100587.33;;;;-48
2019/07/13 06:16:48;;;;;;;3.03;2.67;;;;;;;21.59;53.57;100594.22;;;;-48
2019/07/13 06:19:48;;;;;;;3.37;3.07;;;;;;;21.60;53.59;100597.25;;;;-48
2019/07/13 06:22:48;;;;;;;2.99;2.71;;;;;;;21.60;53.50;100598.77;;;;-48
2019/07/13 06:25:48;;;;;;;4.49;2.93;;;;;;;21.61;53.56;100605.83;;;;-53
2019/07/13 06:28:48;;;;;;;3.45;2.81;;;;;;;21.63;53.49;100604.22;;;;-52
2019/07/13 06:31:48;;;;;;;3.72;2.79;;;;;;;21.66;53.54;100604.23;;;;-52
2019/07/13 06:34:48;;;;;;;3.81;2.74;;;;;;;21.70;53.53;100606.87;;;;-51
2019/07/13 06:37:48;;;;;;;3.17;2.70;;;;;;;21.72;53.57;100610.34;;;;-50
2019/07/13 06:40:48;;;;;;;3.27;2.63;;;;;;;21.74;53.62;100614.36;;;;-51
2019/07/13 06:43:48;;;;;;;5.24;2.81;;;;;;;21.75;53.67;100618.66;;;;-48
2019/07/13 06:46:48;;;;;;;3.78;2.85;;;;;;;21.77;53.70;100624.55;;;;-48
2019/07/13 06:49:48;;;;;;;3.65;2.77;;;;;;;21.79;53.65;100627.89;;;;-50
2019/07/13 06:52:48;;;;;;;3.86;2.63;;;;;;;21.79;53.68;100632.20;;;;-47
2019/07/13 06:55:48;;;;;;;3.96;2.65;;;;;;;21.77;53.46;100629.59;;;;-50
2019/07/13 06:58:48;;;;;;;2.95;2.59;;;;;;;21.76;53.64;100632.92;;;;-48
2019/07/13 07:01:48;;;;;;;3.87;2.67;;;;;;;21.75;53.56;100635.13;;;;-48
2019/07/13 07:04:48;;;;;;;3.59;2.85;;;;;;;21.73;53.58;100632.03;;;;-48
2019/07/13 07:07:48;;;;;;;2.83;2.51;;;;;;;21.72;53.55;100634.05;;;;-48
2019/07/13 07:10:49;;;;;;;2.83;2.57;;;;;;;21.72;53.53;100632.27;;;;-48
2019/07/13 07:13:48;;;;;;;3.60;2.71;;;;;;;21.72;53.49;100634.85;;;;-62
2019/07/13 07:16:48;;;;;;;2.87;2.47;;;;;;;21.71;53.47;100639.39;;;;-59
2019/07/13 07:19:48;;;;;;;3.95;2.48;;;;;;;21.71;53.43;100648.20;;;;-61
2019/07/13 07:22:48;;;;;;;2.60;2.40;;;;;;;21.71;53.47;100647.92;;;;-60
2019/07/13 07:25:48;;;;;;;5.96;2.67;;;;;;;21.72;53.51;100648.67;;;;-60
2019/07/13 07:28:48;;;;;;;2.81;2.53;;;;;;;21.75;53.42;100653.13;;;;-61
2019/07/13 07:31:48;;;;;;;3.63;2.48;;;;;;;21.77;53.46;100654.65;;;;-59
2019/07/13 07:34:48;;;;;;;4.81;2.51;;;;;;;21.79;53.50;100656.98;;;;-54
2019/07/13 07:37:48;;;;;;;3.90;2.41;;;;;;;21.82;53.61;100658.27;;;;-56
2019/07/13 07:40:48;;;;;;;3.37;2.53;;;;;;;21.82;53.69;100663.65;;;;-59
2019/07/13 07:43:48;;;;;;;6.33;2.68;;;;;;;21.85;53.92;100660.30;;;;-57
2019/07/13 07:46:48;;;;;;;9.21;3.04;;;;;;;21.84;54.03;100658.84;;;;-55
2019/07/13 07:49:48;;;;;;;3.95;2.57;;;;;;;21.84;54.00;100654.31;;;;-55
2019/07/13 07:52:48;;;;;;;5.90;2.61;;;;;;;21.84;53.89;100653.91;;;;-55
2019/07/13 07:55:48;;;;;;;6.11;2.64;;;;;;;21.85;53.81;100657.87;;;;-56
2019/07/13 07:58:48;;;;;;;3.65;2.70;;;;;;;21.84;53.77;100657.84;;;;-55
2019/07/13 08:01:48;;;;;;;3.91;2.62;;;;;;;21.85;53.66;100656.53;;;;-49
2019/07/13 08:04:49;;;;;;;9.75;3.81;;;;;;;21.82;55.86;100655.07;;;;-47
2019/07/13 08:07:48;;;;;;;6.70;5.51;;;;;;;21.76;56.18;100658.48;;;;-48
2019/07/13 08:10:48;;;;;;;6.17;4.77;;;;;;;21.81;56.34;100659.58;;;;-50
2019/07/13 08:13:48;;;;;;;7.59;4.70;;;;;;;21.77;56.33;100661.71;;;;-46
2019/07/13 08:16:48;;;;;;;7.51;5.83;;;;;;;21.74;56.38;100661.93;;;;-54
2019/07/13 08:19:48;;;;;;;6.87;5.59;;;;;;;21.73;56.36;100664.68;;;;-55
2019/07/13 08:22:48;;;;;;;8.08;5.80;;;;;;;21.70;56.82;100667.92;;;;-54
2019/07/13 08:25:48;;;;;;;6.73;5.49;;;;;;;21.69;56.82;100668.29;;;;-47
2019/07/13 08:28:48;;;;;;;6.21;5.57;;;;;;;21.68;56.65;100671.11;;;;-47
2019/07/13 08:31:48;;;;;;;9.01;5.11;;;;;;;21.71;56.42;100672.13;;;;-48
2019/07/13 08:34:48;;;;;;;7.43;5.31;;;;;;;21.71;56.39;100670.55;;;;-52
2019/07/13 08:37:48;;;;;;;7.34;4.97;;;;;;;21.72;56.47;100670.86;;;;-47
2019/07/13 08:40:48;;;;;;;6.69;5.07;;;;;;;21.73;56.50;100680.31;;;;-57
2019/07/13 08:43:48;;;;;;;6.85;5.24;;;;;;;21.74;56.51;100683.38;;;;-51
2019/07/13 08:46:48;;;;;;;5.23;4.74;;;;;;;21.75;56.49;100686.52;;;;-60
2019/07/13 08:49:48;;;;;;;5.29;4.73;;;;;;;21.77;56.56;100684.41;;;;-52
2019/07/13 08:52:48;;;;;;;5.26;4.63;;;;;;;21.78;56.55;100685.18;;;;-48
2019/07/13 08:55:48;;;;;;;5.70;4.84;;;;;;;21.78;56.46;100685.69;;;;-60
2019/07/13 08:58:48;;;;;;;6.12;4.98;;;;;;;21.80;56.43;100689.39;;;;-58
2019/07/13 09:01:48;;;;;;;5.83;4.85;;;;;;;21.80;56.64;100688.55;;;;-51
2019/07/13 09:04:48;;;;;;;6.77;4.68;;;;;;;21.80;56.54;100690.80;;;;-51
2019/07/13 09:07:48;;;;;;;5.33;4.79;;;;;;;21.81;56.35;100690.17;;;;-52
2019/07/13 09:10:48;;;;;;;6.59;4.88;;;;;;;21.82;56.71;100696.27;;;;-52
2019/07/13 09:13:48;;;;;;;5.53;4.77;;;;;;;21.82;56.53;100699.13;;;;-52
2019/07/13 09:16:48;;;;;;;5.49;4.96;;;;;;;21.82;56.39;100698.05;;;;-51
2019/07/13 09:19:48;;;;;;;6.03;5.09;;;;;;;21.82;56.24;100696.70;;;;-51
2019/07/13 09:22:48;;;;;;;6.73;4.99;;;;;;;21.83;56.30;100698.15;;;;-50
2019/07/13 09:25:48;;;;;;;6.17;4.78;;;;;;;21.85;56.14;100702.16;;;;-50
2019/07/13 09:28:48;;;;;;;5.41;4.86;;;;;;;21.85;56.35;100700.86;;;;-51
2019/07/13 09:31:48;;;;;;;5.03;4.59;;;;;;;21.85;56.14;100705.80;;;;-51
2019/07/13 09:34:48;;;;;;;5.59;5.01;;;;;;;21.87;56.15;100706.21;;;;-49
2019/07/13 09:37:48;;;;;;;5.60;4.62;;;;;;;21.87;56.22;100707.55;;;;-52
2019/07/13 09:40:48;;;;;;;6.07;5.06;;;;;;;21.85;56.28;100711.11;;;;-52
2019/07/13 09:43:48;;;;;;;5.50;4.82;;;;;;;21.86;56.06;100711.89;;;;-52
2019/07/13 09:46:48;;;;;;;5.23;4.63;;;;;;;21.85;56.36;100717.06;;;;-52
2019/07/13 09:49:48;;;;;;;8.17;5.03;;;;;;;21.84;56.16;100709.45;;;;-52
2019/07/13 09:52:48;;;;;;;5.33;4.63;;;;;;;21.86;56.00;100706.95;;;;-54
2019/07/13 09:55:48;;;;;;;4.93;4.46;;;;;;;21.90;55.94;100712.55;;;;-53
2019/07/13 09:58:48;;;;;;;5.23;4.19;;;;;;;21.92;55.72;100715.75;;;;-54
2019/07/13 10:01:48;;;;;;;6.25;4.35;;;;;;;21.93;55.57;100716.70;;;;-57
2019/07/13 10:04:48;;;;;;;5.21;4.29;;;;;;;21.94;55.50;100716.57;;;;-57
2019/07/13 10:07:48;;;;;;;4.78;4.21;;;;;;;21.95;55.35;100710.35;;;;-59
2019/07/13 10:10:48;;;;;;;5.85;3.91;;;;;;;21.94;55.21;100710.92;;;;-58
2019/07/13 10:13:48;;;;;;;5.22;4.21;;;;;;;21.94;55.06;100712.94;;;;-57
2019/07/13 10:16:48;;;;;;;4.31;3.81;;;;;;;21.95;55.01;100711.86;;;;-58
2019/07/13 10:19:48;;;;;;;4.23;3.84;;;;;;;21.94;54.93;100714.99;;;;-57
2019/07/13 10:22:49;;;;;;;4.10;3.70;;;;;;;21.93;54.88;100713.00;;;;-57
2019/07/13 10:25:50;;;;;;;3.95;3.57;;;;;;;21.94;54.81;100714.95;;;;-59
2019/07/13 10:28:48;;;;;;;4.66;3.88;;;;;;;21.93;54.74;100708.97;;;;-57
2019/07/13 10:31:48;;;;;;;3.94;3.54;;;;;;;21.93;54.69;100715.29;;;;-58
2019/07/13 10:34:48;;;;;;;3.94;3.57;;;;;;;21.93;54.58;100713.84;;;;-57
2019/07/13 10:37:48;;;;;;;4.01;3.49;;;;;;;21.93;54.59;100720.50;;;;-58
2019/07/13 10:40:48;;;;;;;6.25;3.65;;;;;;;21.93;54.52;100718.38;;;;-56
2019/07/13 10:43:48;;;;;;;3.67;3.33;;;;;;;21.94;54.46;100720.95;;;;-59
2019/07/13 10:46:48;;;;;;;3.88;3.57;;;;;;;21.94;54.50;100722.02;;;;-56
2019/07/13 10:49:48;;;;;;;4.24;3.57;;;;;;;21.93;54.47;100722.19;;;;-55
2019/07/13 10:52:48;;;;;;;3.75;3.40;;;;;;;21.92;54.51;100716.59;;;;-55
2019/07/13 10:55:48;;;;;;;8.07;3.47;;;;;;;21.94;54.46;100721.22;;;;-58
2019/07/13 10:58:48;;;;;;;4.17;3.42;;;;;;;21.95;54.38;100719.13;;;;-60
2019/07/13 11:01:48;;;;;;;4.81;3.45;;;;;;;21.98;54.38;100716.83;;;;-61
2019/07/13 11:04:48;;;;;;;4.45;3.51;;;;;;;21.99;54.36;100712.22;;;;-61
2019/07/13 11:07:48;;;;;;;4.25;3.36;;;;;;;22.01;54.34;100715.39;;;;-60
2019/07/13 11:10:48;;;;;;;3.94;3.49;;;;;;;22.02;54.32;100716.27;;;;-60
2019/07/13 11:13:48;;;;;;;4.33;3.37;;;;;;;22.01;54.21;100716.57;;;;-59
2019/07/13 11:16:48;;;;;;;4.56;3.40;;;;;;;22.00;54.29;100713.78;;;;-59
2019/07/13 11:19:48;;;;;;;3.83;3.31;;;;;;;22.00;54.33;100717.88;;;;-59
2019/07/13 11:22:48;;;;;;;3.67;3.29;;;;;;;22.00;54.22;100718.89;;;;-60
2019/07/13 11:25:48;;;;;;;4.63;3.33;;;;;;;21.99;54.21;100719.19;;;;-59
2019/07/13 11:28:48;;;;;;;3.61;3.31;;;;;;;21.98;54.20;100712.28;;;;-59
2019/07/13 11:31:48;;;;;;;3.53;3.23;;;;;;;21.98;54.08;100708.75;;;;-59
2019/07/13 11:34:48;;;;;;;4.03;3.24;;;;;;;21.98;54.11;100706.80;;;;-60
2019/07/13 11:37:48;;;;;;;4.14;3.31;;;;;;;22.00;54.00;100707.34;;;;-52
2019/07/13 11:40:48;;;;;;;4.35;3.02;;;;;;;22.00;53.98;100711.82;;;;-52
2019/07/13 11:43:48;;;;;;;5.17;3.13;;;;;;;22.02;54.05;100714.59;;;;-55
2019/07/13 11:46:48;;;;;;;3.50;3.18;;;;;;;22.03;54.05;100714.02;;;;-54
2019/07/13 11:49:48;;;;;;;6.10;3.34;;;;;;;22.02;54.20;100716.20;;;;-52
2019/07/13 11:52:48;;;;;;;5.92;3.51;;;;;;;22.04;54.22;100710.97;;;;-54
2019/07/13 11:55:48;;;;;;;4.75;3.30;;;;;;;22.05;54.21;100708.81;;;;-53
2019/07/13 11:58:48;;;;;;;6.19;3.39;;;;;;;22.06;54.12;100708.85;;;;-53
2019/07/13 12:01:48;;;;;;;5.45;3.27;;;;;;;22.06;54.21;100710.20;;;;-55
2019/07/13 12:04:48;;;;;;;8.08;3.18;;;;;;;22.08;54.17;100712.97;;;;-55
2019/07/13 12:07:48;;;;;;;3.92;3.11;;;;;;;22.08;54.19;100709.60;;;;-54
2019/07/13 12:10:48;;;;;;;4.63;3.11;;;;;;;22.09;54.18;100707.28;;;;-55
2019/07/13 12:13:48;;;;;;;5.92;3.26;;;;;;;22.09;54.13;100705.77;;;;-53
2019/07/13 12:16:48;;;;;;;3.76;3.03;;;;;;;22.10;54.12;100707.39;;;;-52
2019/07/13 12:19:48;;;;;;;6.11;3.30;;;;;;;22.10;54.19;100704.87;;;;-55
2019/07/13 12:22:48;;;;;;;7.46;2.99;;;;;;;22.12;54.08;100707.80;;;;-51
2019/07/13 12:25:48;;;;;;;5.89;3.02;;;;;;;22.11;54.24;100708.70;;;;-54
2019/07/13 12:28:48;;;;;;;7.35;3.15;;;;;;;22.08;54.28;100702.88;;;;-57
2019/07/13 12:31:48;;;;;;;7.94;3.83;;;;;;;22.08;54.08;100703.28;;;;-54
2019/07/13 12:34:48;;;;;;;4.33;3.10;;;;;;;22.10;54.18;100700.77;;;;-51
2019/07/13 12:37:48;;;;;;;6.51;3.42;;;;;;;22.10;54.23;100691.52;;;;-52
2019/07/13 12:40:48;;;;;;;5.65;3.22;;;;;;;22.12;54.24;100687.55;;;;-54
2019/07/13 12:43:48;;;;;;;5.80;3.21;;;;;;;22.12;54.33;100683.01;;;;-53
2019/07/13 12:46:48;;;;;;;7.46;3.11;;;;;;;22.13;54.29;100680.86;;;;-52
2019/07/13 12:49:48;;;;;;;5.62;3.25;;;;;;;22.12;54.30;100676.22;;;;-52
2019/07/13 12:52:48;;;;;;;6.49;3.16;;;;;;;22.14;54.20;100681.73;;;;-53
2019/07/13 12:55:48;;;;;;;6.59;3.11;;;;;;;22.14;54.22;100681.67;;;;-51
2019/07/13 12:58:48;;;;;;;5.73;3.22;;;;;;;22.15;54.27;100684.94;;;;-51
2019/07/13 13:01:48;;;;;;;6.43;3.15;;;;;;;22.15;54.33;100680.44;;;;-52
2019/07/13 13:04:48;;;;;;;3.96;3.11;;;;;;;22.15;54.29;100684.64;;;;-51
2019/07/13 13:07:48;;;;;;;4.48;3.15;;;;;;;22.16;54.36;100685.08;;;;-51
2019/07/13 13:10:48;;;;;;;7.06;3.29;;;;;;;22.16;54.33;100679.59;;;;-51
2019/07/13 13:13:48;;;;;;;6.67;3.52;;;;;;;22.14;54.31;100681.67;;;;-52
2019/07/13 13:16:48;;;;;;;6.72;3.33;;;;;;;22.14;54.35;100687.45;;;;-53
2019/07/13 13:19:48;;;;;;;6.51;3.55;;;;;;;22.12;54.31;100684.36;;;;-52
2019/07/13 13:22:48;;;;;;;6.83;3.48;;;;;;;22.11;54.26;100681.39;;;;-53
2019/07/13 13:25:48;;;;;;;7.97;3.47;;;;;;;22.11;54.21;100682.47;;;;-53
2019/07/13 13:28:48;;;;;;;8.44;3.32;;;;;;;22.11;54.27;100677.42;;;;-53
2019/07/13 13:31:48;;;;;;;6.51;3.56;;;;;;;22.10;54.27;100678.39;;;;-53
2019/07/13 13:34:48;;;;;;;5.61;3.51;;;;;;;22.10;54.25;100684.45;;;;-53
2019/07/13 13:37:48;;;;;;;4.28;3.45;;;;;;;22.09;54.18;100678.25;;;;-53
2019/07/13 13:40:48;;;;;;;7.03;3.42;;;;;;;22.09;54.14;100678.70;;;;-52
2019/07/13 13:43:54;;;;;;;9.86;3.45;;;;;;;22.08;54.07;100674.38;;;;-57
2019/07/13 13:46:48;;;;;;;7.33;3.50;;;;;;;22.08;54.03;100667.72;;;;-56
2019/07/13 13:49:48;;;;;;;5.92;3.25;;;;;;;22.07;54.01;100664.66;;;;-56
2019/07/13 13:52:48;;;;;;;3.65;3.31;;;;;;;22.08;53.99;100670.75;;;;-57
2019/07/13 13:55:48;;;;;;;5.43;3.11;;;;;;;22.07;53.96;100669.77;;;;-58
2019/07/13 13:58:48;;;;;;;4.48;3.25;;;;;;;22.06;53.89;100667.98;;;;-52
2019/07/13 14:01:48;;;;;;;4.37;3.41;;;;;;;22.07;53.92;100668.86;;;;-52
2019/07/13 14:04:48;;;;;;;3.77;3.14;;;;;;;22.06;53.84;100667.58;;;;-52
2019/07/13 14:07:48;;;;;;;3.57;3.11;;;;;;;22.04;53.81;100661.69;;;;-52
2019/07/13 14:10:48;;;;;;;5.90;3.09;;;;;;;22.04;53.83;100667.00;;;;-56
2019/07/13 14:13:48;;;;;;;4.61;3.13;;;;;;;22.05;53.79;100669.22;;;;-56
2019/07/13 14:16:48;;;;;;;3.53;3.13;;;;;;;22.04;53.76;100666.23;;;;-56
2019/07/13 14:19:48;;;;;;;6.21;3.21;;;;;;;22.03;53.75;100659.30;;;;-57
2019/07/13 14:22:48;;;;;;;4.84;3.20;;;;;;;22.02;53.78;100662.62;;;;-56
2019/07/13 14:25:48;;;;;;;3.91;2.99;;;;;;;22.02;53.69;100659.26;;;;-56
2019/07/13 14:28:48;;;;;;;4.25;3.15;;;;;;;22.02;53.71;100652.59;;;;-52
2019/07/13 14:31:48;;;;;;;3.36;3.06;;;;;;;22.02;53.68;100651.19;;;;-57
2019/07/13 14:34:47;;;;;;;3.85;2.88;;;;;;;22.02;53.64;100641.36;;;;-51
2019/07/13 14:37:48;;;;;;;3.69;2.83;;;;;;;22.02;53.61;100640.09;;;;-55
2019/07/13 14:40:48;;;;;;;4.09;3.22;;;;;;;22.01;53.71;100637.96;;;;-49
2019/07/13 14:43:48;;;;;;;4.07;3.11;;;;;;;22.03;53.62;100637.27;;;;-51
2019/07/13 14:46:48;;;;;;;5.47;2.96;;;;;;;22.04;53.57;100633.77;;;;-53
2019/07/13 14:49:48;;;;;;;5.97;3.03;;;;;;;22.07;53.69;100632.77;;;;-52
2019/07/13 14:52:48;;;;;;;5.03;3.00;;;;;;;22.08;53.73;100628.70;;;;-61
2019/07/13 14:55:48;;;;;;;8.59;2.95;;;;;;;22.08;53.76;100631.22;;;;-58
2019/07/13 14:58:48;;;;;;;6.59;2.89;;;;;;;22.09;53.70;100629.34;;;;-59
2019/07/13 15:01:48;;;;;;;6.45;2.69;;;;;;;22.11;53.72;100624.27;;;;-54
2019/07/13 15:04:48;;;;;;;7.77;3.50;;;;;;;22.12;54.21;100624.74;;;;-53
2019/07/13 15:07:48;;;;;;;13.94;3.10;;;;;;;22.13;54.12;100623.40;;;;-60
2019/07/13 15:10:48;;;;;;;5.25;2.82;;;;;;;22.14;54.26;100620.51;;;;-63
2019/07/13 15:13:48;;;;;;;5.49;3.05;;;;;;;22.16;54.15;100617.62;;;;-53
2019/07/13 15:16:48;;;;;;;5.86;3.13;;;;;;;22.18;54.14;100620.72;;;;-59
2019/07/13 15:19:48;;;;;;;10.59;3.15;;;;;;;22.19;54.11;100616.59;;;;-52
2019/07/13 15:22:48;;;;;;;6.31;2.70;;;;;;;22.20;54.14;100615.14;;;;-51
2019/07/13 15:25:48;;;;;;;5.75;2.88;;;;;;;22.21;54.00;100607.47;;;;-58
2019/07/13 15:28:48;;;;;;;8.41;2.89;;;;;;;22.22;54.06;100602.09;;;;-59
2019/07/13 15:31:48;;;;;;;5.85;3.11;;;;;;;22.20;54.12;100594.92;;;;-60
2019/07/13 15:34:47;;;;;;;7.62;2.80;;;;;;;22.26;54.40;100594.09;;;;-58
2019/07/13 15:37:48;;;;;;;8.36;3.09;;;;;;;22.26;54.12;100595.50;;;;-47
2019/07/13 15:40:48;;;;;;;13.59;2.99;;;;;;;22.26;54.08;100596.20;;;;-54
2019/07/13 15:43:48;;;;;;;5.81;2.95;;;;;;;22.28;54.00;100599.10;;;;-52
2019/07/13 15:46:48;;;;;;;8.11;3.02;;;;;;;22.28;54.04;100589.45;;;;-53
2019/07/13 15:49:48;;;;;;;6.06;2.93;;;;;;;22.29;54.01;100599.81;;;;-52
2019/07/13 15:52:48;;;;;;;4.43;2.68;;;;;;;22.29;53.92;100598.73;;;;-59
2019/07/13 15:55:48;;;;;;;5.13;2.85;;;;;;;22.29;54.09;100604.22;;;;-63
2019/07/13 15:58:48;;;;;;;4.64;3.02;;;;;;;22.30;53.94;100609.14;;;;-50
2019/07/13 16:01:48;;;;;;;7.28;3.03;;;;;;;22.30;53.90;100617.45;;;;-52
2019/07/13 16:04:48;;;;;;;5.49;2.97;;;;;;;22.27;53.98;100613.30;;;;-53
2019/07/13 16:07:47;;;;;;;5.19;2.81;;;;;;;22.25;53.92;100612.39;;;;-53
2019/07/13 16:10:48;;;;;;;9.29;2.85;;;;;;;22.24;53.93;100612.52;;;;-52
2019/07/13 16:13:48;;;;;;;5.17;2.95;;;;;;;22.23;53.98;100612.55;;;;-52
2019/07/13 16:16:48;;;;;;;4.89;2.83;;;;;;;22.22;53.86;100613.63;;;;-49
2019/07/13 16:19:47;;;;;;;3.13;2.71;;;;;;;22.23;53.85;100619.38;;;;-51
2019/07/13 16:22:48;;;;;;;6.39;2.76;;;;;;;22.24;53.83;100616.66;;;;-49
2019/07/13 16:25:48;;;;;;;4.31;2.83;;;;;;;22.25;53.84;100619.36;;;;-52
2019/07/13 16:28:48;;;;;;;4.97;3.13;;;;;;;22.25;53.88;100624.00;;;;-52
2019/07/13 16:31:48;;;;;;;5.38;3.11;;;;;;;22.24;53.85;100620.36;;;;-52
2019/07/13 16:34:48;;;;;;;8.19;3.11;;;;;;;22.22;53.85;100612.63;;;;-52
2019/07/13 16:37:48;;;;;;;7.21;3.10;;;;;;;22.22;53.82;100611.88;;;;-52
2019/07/13 16:40:47;;;;;;;7.25;3.14;;;;;;;22.22;53.91;100615.75;;;;-51
2019/07/13 16:43:47;;;;;;;6.12;2.80;;;;;;;22.21;53.80;100613.77;;;;-51